| Date | Time | Temp. (oF) | Dew Point (oF) | Rel. Hum. (%) | Press. (in.) | Wind Dir. (deg.) | Wind Speed (mph) | Hourly Rainfall (i n.) |
|
|---|---|---|---|---|---|---|---|---|---|
| 1 | 07/06 | 24:00 | 81 | 69 | 69 | 30.09 | 270 | 0 | 0.00 |
| 2 | 07/05 | 23:00 | 83 | 69 | 63 | 30.11 | 270 | 1 | 0.00 |
| 3 | 07/05 | 22:00 | 85 | 69 | 60 | 30.11 | 270 | 0 | 0.00 |
| 4 | 07/05 | 21:00 | 87 | 69 | 57 | 30.10 | 290 | 2 | 0.00 |
| 5 | 07/05 | 20:00 | 90 | 70 | 54 | 30.08 | 310 | 6 | 0.00 |
| 6 | 07/05 | 19:00 | 92 | 70 | 50 | 30.09 | 270 | 2 | 0.00 |
| 7 | 07/05 | 18:00 | 94 | 71 | 49 | 30.11 | 330 | 2 | 0.00 |
| 8 | 07/05 | 17:00 | 95 | 70 | 46 | 30.13 | 280 | 10 | 0.00 |
| 9 | 07/05 | 16:00 | 96 | 71 | 46 | 30.12 | 310 | 9 | 0.00 |
| 10 | 07/05 | 15:00 | 98 | 72 | 45 | 30.13 | 250 | 10 | 0.00 |
| 11 | 07/05 | 14:00 | 98 | 70 | 42 | 30.13 | 300 | 9 | 0.00 |
| 12 | 07/05 | 13:00 | 97 | 72 | 46 | 30.13 | 300 | 9 | 0.00 |
| 13 | 07/05 | 12:00 | 96 | 74 | 51 | 30.14 | 290 | 9 | 0.00 |
| 14 | 07/05 | 11:00 | 93 | 74 | 56 | 30.15 | 270 | 6 | 0.00 |
| 15 | 07/05 | 10:00 | 86 | 74 | 68 | 30.16 | 220 | 7 | 0.00 |
| 16 | 07/05 | 09:00 | 82 | 72 | 74 | 30.21 | 290 | 12 | 0.00 |
| 17 | 07/05 | 08:00 | 79 | 73 | 83 | 30.22 | 270 | 2 | 0.00 |
| 18 | 07/05 | 07:00 | 76 | 70 | 82 | 30.20 | 270 | 0 | 0.00 |
| 19 | 07/05 | 06:00 | 77 | 69 | 79 | 30.16 | 270 | 0 | 0.00 |
| 20 | 07/05 | 05:00 | 77 | 69 | 78 | 30.12 | 270 | 1 | 0.00 |
| 21 | 07/05 | 04:00 | 77 | 69 | 78 | 30.12 | 290 | 1 | 0.00 |
| 22 | 07/05 | 03:00 | 78 | 69 | 75 | 30.13 | 290 | 0 | 0.00 |
| 23 | 07/05 | 02:00 | 79 | 69 | 73 | 30.14 | 290 | 0 | 0.00 |
| 24 | 07/05 | 01:00 | 80 | 70 | 73 | 30.15 | 290 | 0 | 0.00 |